Terminal Aerodrome Forecast
Issued by NWS

Home | Current Version | Previous Version | Graphics & Text | Print | Product List | Glossary On
Versions: 1 2 3 4 5 6 7 8 9 10 11 12 13 14 15 16 17 18 19 20
000
FTUS43 KICT 272044 CCA
TAFRSL
TAF COR
KRSL 272044Z 2718/2818 11008KT P6SM OVC060
     FM272300 13012KT P6SM OVC035
     FM280600 16010KT P6SM OVC030
     FM281400 16014KT 5SM -SN OVC020=

USA.gov is the U.S. government's official web portal to all federal, state and local government web resources and services.